createdAt,value
2019-02-22T00:04:02.193Z,99897.36
2019-02-22T00:09:28.837Z,99890.28
2019-02-22T00:20:10.462Z,99890.08
2019-02-22T00:30:45.781Z,99900.72
2019-02-22T00:35:51.142Z,99897.11
2019-02-22T00:40:57.954Z,99904.71
2019-02-22T00:46:22.198Z,99914.41
2019-02-22T00:51:27.406Z,99917.32
2019-02-22T01:02:08.881Z,99920.45
2019-02-22T01:17:47.787Z,99931.94
2019-02-22T01:28:28.755Z,99944.67
2019-02-22T01:33:33.950Z,99951.31
2019-02-22T01:43:56.234Z,99960.20
2019-02-22T01:49:13.432Z,99955.05
2019-02-22T02:05:44.471Z,99955.22
2019-02-22T02:10:54.050Z,99958.44
2019-02-22T02:16:17.421Z,99958.98
2019-02-22T02:21:33.948Z,99955.56
2019-02-22T02:26:39.318Z,99957.56
2019-02-22T02:31:44.703Z,99965.15
2019-02-22T02:36:49.960Z,99976.34
2019-02-22T02:41:55.148Z,99964.48
2019-02-22T02:52:18.085Z,99982.53
2019-02-22T02:57:23.390Z,99976.44
2019-02-22T03:02:47.734Z,99982.21
2019-02-22T03:07:55.576Z,99989.18
2019-02-22T03:13:01.054Z,99998.66
2019-02-22T03:18:18.117Z,99999.98
2019-02-22T03:23:23.310Z,100003.09
2019-02-22T03:28:28.922Z,100001.38
2019-02-22T03:33:34.238Z,100004.42
2019-02-22T03:38:39.414Z,100006.63
2019-02-22T03:43:50.581Z,100009.97
2019-02-22T03:48:55.795Z,99995.67
2019-02-22T03:54:02.531Z,100009.52
2019-02-22T03:59:07.762Z,100006.86
2019-02-22T04:04:13.096Z,100010.92
2019-02-22T04:09:18.284Z,100013.51
2019-02-22T04:14:23.557Z,100016.23
2019-02-22T04:24:58.543Z,100020.16
2019-02-22T04:30:04.081Z,100024.92
2019-02-22T04:35:20.807Z,100032.89
2019-02-22T04:40:26.030Z,100031.95
2019-02-22T04:51:12.975Z,100043.47
2019-02-22T04:56:18.210Z,100051.11
2019-02-22T05:06:52.744Z,100049.46
2019-02-22T05:17:28.063Z,100063.47
2019-02-22T05:22:33.331Z,100077.16
2019-02-22T05:27:38.535Z,100076.14
2019-02-22T05:32:43.826Z,100083.18
2019-02-22T05:43:25.139Z,100090.77
2019-02-22T05:48:43.744Z,100095.38
2019-02-22T05:53:48.997Z,100095.53
2019-02-22T05:59:05.655Z,100101.23
2019-02-22T06:04:12.583Z,100100.84
2019-02-22T06:09:17.821Z,100106.88
2019-02-22T06:19:39.370Z,100131.66
2019-02-22T06:24:44.578Z,100134.53
2019-02-22T06:29:50.022Z,100147.83
2019-02-22T06:35:08.802Z,100154.02
2019-02-22T06:40:19.014Z,100144.55
2019-02-22T06:45:24.229Z,100151.20
2019-02-22T06:50:33.671Z,100160.45
2019-02-22T06:55:42.249Z,100169.27
2019-02-22T07:00:47.452Z,100183.50
2019-02-22T07:05:52.643Z,100201.27
2019-02-22T07:16:28.528Z,100210.24
2019-02-22T07:27:03.697Z,100206.97
2019-02-22T07:37:57.487Z,100223.31
2019-02-22T07:43:08.039Z,100228.77
2019-02-22T07:59:11.935Z,100242.42
2019-02-22T08:04:36.210Z,100242.97
2019-02-22T08:09:41.590Z,100243.43
2019-02-22T08:14:46.840Z,100250.92
2019-02-22T08:19:52.137Z,100253.03
2019-02-22T08:36:03.992Z,100289.97
2019-02-22T08:46:25.201Z,100287.14
2019-02-22T08:57:06.879Z,100308.89
2019-02-22T09:02:12.570Z,100319.64
2019-02-22T09:07:18.760Z,100312.89
2019-02-22T09:17:40.744Z,100334.41
2019-02-22T09:22:45.964Z,100343.90
2019-02-22T09:27:51.179Z,100346.45
2019-02-22T09:32:56.490Z,100345.69
2019-02-22T09:38:01.740Z,100359.34
2019-02-22T09:43:07.002Z,100345.75
2019-02-22T09:48:12.297Z,100334.70
2019-02-22T09:53:17.591Z,100357.73
2019-02-22T09:58:23.079Z,100363.06
2019-02-22T10:03:28.306Z,100363.06
2019-02-22T10:08:33.520Z,100359.63
2019-02-22T10:13:39.058Z,100368.56
2019-02-22T10:18:44.276Z,100373.58
2019-02-22T10:23:49.512Z,100372.69
2019-02-22T10:28:54.702Z,100379.81
2019-02-22T10:33:59.889Z,100377.55
2019-02-22T10:39:06.273Z,100379.17
2019-02-22T10:44:17.881Z,100378.90
2019-02-22T10:49:21.131Z,100381.99
2019-02-22T10:54:26.312Z,100387.73
2019-02-22T10:59:32.564Z,100389.45
2019-02-22T11:04:37.789Z,100383.73
2019-02-22T11:09:43.279Z,100373.81
2019-02-22T11:14:48.569Z,100383.66
2019-02-22T11:19:53.771Z,100393.95
2019-02-22T11:24:59.060Z,100387.73
2019-02-22T11:30:04.539Z,100387.02
2019-02-22T11:35:09.845Z,100375.66
2019-02-22T11:40:16.368Z,100385.28
2019-02-22T11:45:21.663Z,100382.59
2019-02-22T11:50:26.938Z,100387.13
2019-02-22T11:55:32.149Z,100393.94
2019-02-22T12:00:37.529Z,100388.50
2019-02-22T12:05:43.052Z,100401.94
2019-02-22T12:10:48.310Z,100401.61
2019-02-22T12:15:53.504Z,100401.33
2019-02-22T12:20:58.713Z,100400.81
2019-02-22T12:26:03.970Z,100405.36
2019-02-22T12:31:09.404Z,100412.81
2019-02-22T12:36:14.743Z,100415.95
2019-02-22T12:41:20.058Z,100424.47
2019-02-22T12:46:25.576Z,100419.15
2019-02-22T12:51:30.928Z,100425.19
2019-02-22T13:01:43.330Z,100439.38
2019-02-22T13:06:48.556Z,100426.94
2019-02-22T13:11:53.832Z,100442.24
2019-02-22T13:16:59.011Z,100449.88
2019-02-22T13:22:04.322Z,100455.95
2019-02-22T13:27:09.531Z,100449.83
2019-02-22T13:32:14.894Z,100444.92
2019-02-22T13:37:20.185Z,100443.36
2019-02-22T13:42:25.355Z,100448.51
2019-02-22T13:47:30.596Z,100450.98
2019-02-22T13:52:35.856Z,100453.86
2019-02-22T13:57:41.347Z,100457.48
2019-02-22T14:08:22.461Z,100461.23
2019-02-22T14:14:08.053Z,100467.16
2019-02-22T14:19:14.997Z,100462.38
2019-02-22T14:24:32.262Z,100474.87
2019-02-22T14:30:07.940Z,100477.03
2019-02-22T14:35:32.290Z,100477.78
2019-02-22T14:40:37.501Z,100484.77
2019-02-22T14:45:54.090Z,100495.64
2019-02-22T14:50:59.437Z,100496.29
2019-02-22T14:56:16.319Z,100495.35
2019-02-22T15:01:35.603Z,100504.78
2019-02-22T15:06:40.602Z,100514.23
2019-02-22T15:12:04.864Z,100516.31
2019-02-22T15:17:47.943Z,100516.88
2019-02-22T15:22:53.398Z,100511.67
2019-02-22T15:33:15.692Z,100503.03
2019-02-22T15:38:20.967Z,100488.31
2019-02-22T15:43:45.335Z,100489.47
2019-02-22T15:48:50.534Z,100489.53
2019-02-22T15:54:14.742Z,100493.44
2019-02-22T15:59:21.084Z,100495.52
2019-02-22T16:04:41.241Z,100491.02
2019-02-22T16:09:46.457Z,100502.40
2019-02-22T16:14:51.969Z,100500.48
2019-02-22T16:19:58.847Z,100500.48
2019-02-22T16:25:23.190Z,100514.92
2019-02-22T16:30:40.073Z,100500.56
2019-02-22T16:35:45.291Z,100500.56
2019-02-22T16:40:50.594Z,100528.81
2019-02-22T16:46:15.059Z,100523.31
2019-02-22T16:51:31.687Z,100515.41
2019-02-22T16:56:36.920Z,100518.97
2019-02-22T17:01:42.229Z,100518.42
2019-02-22T17:06:47.434Z,100529.25
2019-02-22T17:11:52.709Z,100530.26
2019-02-22T17:16:57.958Z,100535.13
2019-02-22T17:27:20.166Z,100549.63
2019-02-22T17:32:44.518Z,100551.22
2019-02-22T17:37:51.885Z,100552.05
2019-02-22T17:42:57.155Z,100554.70
2019-02-22T17:48:03.018Z,100566.46
2019-02-22T17:58:46.579Z,100586.48
2019-02-22T18:14:46.430Z,100585.40
2019-02-22T18:20:02.779Z,100596.87
2019-02-22T18:30:26.047Z,100594.45
2019-02-22T18:35:31.426Z,100591.70
2019-02-22T18:40:36.674Z,100589.64
2019-02-22T18:45:53.851Z,100599.31
2019-02-22T18:50:59.104Z,100612.63
2019-02-22T19:12:32.223Z,100631.11
2019-02-22T19:17:37.456Z,100628.26
2019-02-22T19:27:59.774Z,100616.23
2019-02-22T19:33:05.327Z,100615.48
2019-02-22T19:49:03.465Z,100638.25
2019-02-22T19:54:33.001Z,100650.24
2019-02-22T19:59:51.056Z,100652.44
2019-02-22T20:05:15.717Z,100651.75
2019-02-22T20:10:21.424Z,100653.93
2019-02-22T20:26:20.016Z,100661.74
2019-02-22T20:37:02.543Z,100674.03
2019-02-22T20:47:44.522Z,100665.74
2019-02-22T20:52:49.902Z,100679.63
2019-02-22T20:57:55.163Z,100681.44
2019-02-22T21:03:06.185Z,100684.61
2019-02-22T21:08:11.378Z,100680.75
2019-02-22T21:13:16.939Z,100681.00
2019-02-22T21:18:22.130Z,100674.86
2019-02-22T21:23:28.178Z,100677.17
2019-02-22T21:28:45.569Z,100684.09
2019-02-22T21:39:46.844Z,100680.38
2019-02-22T21:45:12.772Z,100673.27
2019-02-22T21:50:17.939Z,100652.88
2019-02-22T22:00:59.471Z,100664.61
2019-02-22T22:06:21.609Z,100669.09
2019-02-22T22:11:46.103Z,100667.73
2019-02-22T22:28:03.611Z,100673.47
2019-02-22T22:33:09.072Z,100687.59
2019-02-22T22:38:14.271Z,100694.11
2019-02-22T22:48:37.431Z,100723.03
2019-02-22T23:04:30.688Z,100716.27
2019-02-22T23:09:47.521Z,100715.22
2019-02-22T23:14:52.753Z,100714.20
2019-02-22T23:19:58.331Z,100706.08
2019-02-22T23:25:44.831Z,100706.15
2019-02-22T23:31:09.230Z,100709.53
2019-02-22T23:36:53.855Z,100713.56
2019-02-22T23:47:29.092Z,100714.13
2019-02-22T23:52:53.618Z,100729.66
